createdAt,value
2019-01-31T00:00:44.215Z,102.33
2019-01-31T00:03:18.782Z,133.90
2019-01-31T00:05:59.263Z,104.70
2019-01-31T00:08:46.385Z,93.83
2019-01-31T00:11:36.707Z,122.23
2019-01-31T00:14:23.693Z,91.23
2019-01-31T00:17:19.646Z,95.17
2019-01-31T00:19:54.025Z,78.77
2019-01-31T00:22:46.463Z,102.17
2019-01-31T00:25:33.057Z,140.00
2019-01-31T00:28:21.115Z,126.33
2019-01-31T00:31:07.733Z,96.30
2019-01-31T00:33:45.493Z,123.57
2019-01-31T00:36:39.927Z,120.07
2019-01-31T00:39:26.548Z,95.60
2019-01-31T00:42:01.001Z,95.53
2019-01-31T00:44:47.395Z,88.00
2019-01-31T00:47:24.840Z,94.30
2019-01-31T00:50:14.791Z,99.90
2019-01-31T00:53:02.744Z,100.53
2019-01-31T00:55:43.559Z,99.03
2019-01-31T00:58:18.027Z,99.73
2019-01-31T01:01:05.341Z,92.03
2019-01-31T01:03:58.408Z,83.57
2019-01-31T01:06:35.792Z,98.50
2019-01-31T01:09:10.516Z,110.07
2019-01-31T01:11:42.246Z,109.10
2019-01-31T01:14:35.184Z,107.80
2019-01-31T01:17:12.643Z,96.70
2019-01-31T01:20:04.231Z,108.50
2019-01-31T01:22:51.484Z,87.93
2019-01-31T01:25:43.914Z,135.33
2019-01-31T01:28:16.014Z,224.50
2019-01-31T01:31:21.275Z,103.63
2019-01-31T01:34:11.124Z,219.30
2019-01-31T01:36:48.532Z,104.83
2019-01-31T01:39:35.206Z,98.63
2019-01-31T01:42:06.887Z,100.97
2019-01-31T01:44:50.500Z,103.27
2019-01-31T01:47:28.452Z,112.10
2019-01-31T01:50:00.230Z,122.03
2019-01-31T01:52:34.586Z,101.33
2019-01-31T01:55:27.669Z,113.87
2019-01-31T01:58:11.391Z,105.17
2019-01-31T02:01:02.787Z,103.83
2019-01-31T02:03:52.392Z,233.37
2019-01-31T02:06:30.243Z,236.43
2019-01-31T02:09:10.943Z,244.23
2019-01-31T02:11:48.343Z,214.70
2019-01-31T02:14:20.035Z,239.53
2019-01-31T02:16:54.719Z,234.80
2019-01-31T02:19:28.995Z,230.00
2019-01-31T02:22:09.588Z,234.40
2019-01-31T02:24:43.962Z,231.83
2019-01-31T02:27:27.503Z,220.53
2019-01-31T02:30:04.969Z,220.13
2019-01-31T02:32:51.618Z,224.27
2019-01-31T02:35:28.844Z,179.47
2019-01-31T02:38:03.547Z,120.73
2019-01-31T02:40:47.134Z,118.00
2019-01-31T02:43:21.658Z,151.60
2019-01-31T02:45:56.305Z,172.73
2019-01-31T02:48:40.221Z,170.83
2019-01-31T02:51:20.575Z,161.80
2019-01-31T02:53:58.062Z,178.57
2019-01-31T02:56:35.529Z,187.87
2019-01-31T02:59:16.268Z,201.43
2019-01-31T03:01:50.915Z,188.40
2019-01-31T03:04:25.432Z,204.87
2019-01-31T03:06:57.124Z,204.10
2019-01-31T03:09:28.845Z,180.27
2019-01-31T03:12:30.654Z,189.20
2019-01-31T03:15:02.395Z,95.50
2019-01-31T03:17:36.698Z,215.50
2019-01-31T03:20:11.237Z,115.07
2019-01-31T03:22:51.877Z,204.23
2019-01-31T03:25:29.382Z,213.83
2019-01-31T03:28:28.397Z,91.67
2019-01-31T03:31:05.722Z,99.03
2019-01-31T03:34:04.921Z,93.13
2019-01-31T03:36:42.356Z,109.23
2019-01-31T03:39:20.103Z,95.77
2019-01-31T03:41:57.846Z,114.23
2019-01-31T03:44:38.082Z,102.47
2019-01-31T03:47:22.109Z,119.43
2019-01-31T03:49:56.391Z,98.40
2019-01-31T03:52:45.009Z,102.47
2019-01-31T03:55:19.767Z,113.77
2019-01-31T03:57:51.562Z,102.87
2019-01-31T04:00:38.284Z,101.83
2019-01-31T04:03:34.029Z,110.33
2019-01-31T04:06:05.795Z,109.17
2019-01-31T04:08:34.431Z,97.20
2019-01-31T04:11:03.088Z,99.97
2019-01-31T04:13:31.672Z,108.43
2019-01-31T04:16:00.246Z,229.27
2019-01-31T04:18:28.869Z,226.33
2019-01-31T04:20:57.509Z,213.80
2019-01-31T04:23:26.009Z,236.53
2019-01-31T04:25:54.621Z,231.23
2019-01-31T04:28:23.201Z,225.73
2019-01-31T04:30:51.761Z,225.60
2019-01-31T04:33:20.445Z,239.77
2019-01-31T04:35:49.121Z,229.70
2019-01-31T04:38:19.715Z,236.80
2019-01-31T04:40:47.942Z,236.97
2019-01-31T04:43:16.514Z,227.37
2019-01-31T04:45:45.155Z,230.10
2019-01-31T04:48:13.702Z,113.50
2019-01-31T04:50:42.348Z,117.73
2019-01-31T04:53:10.992Z,102.47
2019-01-31T04:55:39.662Z,123.17
2019-01-31T04:58:08.224Z,118.00
2019-01-31T05:00:36.790Z,122.73
2019-01-31T05:03:05.873Z,112.07
2019-01-31T05:05:34.516Z,120.30
2019-01-31T05:08:03.106Z,111.53
2019-01-31T05:10:42.421Z,123.03
2019-01-31T05:13:01.877Z,125.53
2019-01-31T05:15:30.491Z,128.17
2019-01-31T05:17:59.138Z,121.73
2019-01-31T05:20:27.700Z,126.87
2019-01-31T05:22:56.382Z,125.10
2019-01-31T05:25:24.951Z,123.20
2019-01-31T05:27:53.458Z,133.73
2019-01-31T05:30:22.057Z,138.67
2019-01-31T05:32:50.560Z,111.83
2019-01-31T05:35:19.196Z,131.13
2019-01-31T05:37:47.828Z,135.87
2019-01-31T05:40:16.318Z,129.13
2019-01-31T05:42:44.963Z,152.20
2019-01-31T05:45:15.253Z,243.53
2019-01-31T05:47:43.894Z,269.27
2019-01-31T05:50:14.575Z,257.27
2019-01-31T05:52:43.192Z,260.17
2019-01-31T05:55:12.354Z,250.03
2019-01-31T05:57:40.798Z,240.43
2019-01-31T06:00:18.955Z,256.23
2019-01-31T06:02:47.600Z,240.97
2019-01-31T06:05:16.105Z,264.27
2019-01-31T06:07:44.727Z,252.73
2019-01-31T06:10:13.400Z,251.40
2019-01-31T06:12:41.981Z,253.27
2019-01-31T06:15:14.875Z,245.50
2019-01-31T06:17:43.519Z,260.63
2019-01-31T06:20:15.323Z,181.93
2019-01-31T06:22:43.632Z,263.57
2019-01-31T06:25:12.189Z,246.00
2019-01-31T06:27:41.135Z,247.97
2019-01-31T06:30:12.846Z,273.70
2019-01-31T06:32:41.488Z,275.77
2019-01-31T06:35:11.532Z,255.67
2019-01-31T06:37:40.217Z,247.97
2019-01-31T06:40:12.062Z,280.47
2019-01-31T06:42:40.715Z,269.83
2019-01-31T06:45:12.623Z,275.33
2019-01-31T06:47:41.219Z,269.93
2019-01-31T06:50:10.005Z,268.30
2019-01-31T06:52:38.614Z,290.60
2019-01-31T06:55:09.180Z,320.30
2019-01-31T06:57:37.831Z,277.07
2019-01-31T07:00:12.651Z,277.30
2019-01-31T07:02:41.301Z,262.60
2019-01-31T07:05:09.877Z,274.77
2019-01-31T07:07:38.414Z,250.70
2019-01-31T07:10:21.814Z,262.40
2019-01-31T07:12:51.308Z,255.30
2019-01-31T07:15:20.067Z,262.33
2019-01-31T07:17:48.712Z,254.87
2019-01-31T07:20:17.926Z,232.37
2019-01-31T07:22:46.573Z,253.13
2019-01-31T07:25:18.668Z,250.57
2019-01-31T07:27:47.289Z,245.60
2019-01-31T07:30:20.855Z,264.30
2019-01-31T07:32:49.510Z,253.40
2019-01-31T07:35:18.193Z,256.40
2019-01-31T07:37:46.753Z,208.30
2019-01-31T07:40:20.296Z,154.70
2019-01-31T07:42:48.858Z,255.47
2019-01-31T07:45:22.625Z,193.90
2019-01-31T07:47:51.711Z,160.37
2019-01-31T07:50:20.516Z,187.17
2019-01-31T07:52:49.167Z,177.63
2019-01-31T07:55:17.933Z,247.23
2019-01-31T07:57:46.558Z,261.90
2019-01-31T08:00:17.885Z,261.87
2019-01-31T08:02:46.450Z,261.17
2019-01-31T08:05:17.152Z,263.20
2019-01-31T08:07:45.743Z,278.43
2019-01-31T08:10:20.481Z,275.10
2019-01-31T08:12:49.055Z,245.77
2019-01-31T08:15:18.908Z,253.47
2019-01-31T08:17:47.543Z,258.80
2019-01-31T08:20:17.783Z,259.50
2019-01-31T08:22:46.445Z,243.07
2019-01-31T08:25:18.237Z,233.80
2019-01-31T08:27:46.893Z,253.13
2019-01-31T08:30:27.769Z,251.77
2019-01-31T08:32:56.347Z,246.07
2019-01-31T08:35:24.929Z,251.47
2019-01-31T08:37:54.561Z,240.17
2019-01-31T08:40:23.221Z,256.53
2019-01-31T08:42:51.870Z,243.30
2019-01-31T08:45:20.477Z,263.80
2019-01-31T08:47:49.119Z,239.33
2019-01-31T08:50:28.839Z,251.93
2019-01-31T08:52:57.483Z,235.83
2019-01-31T08:55:26.430Z,251.47
2019-01-31T08:57:55.115Z,245.47
2019-01-31T09:00:31.115Z,253.17
2019-01-31T09:02:59.800Z,265.17
2019-01-31T09:05:28.478Z,277.83
2019-01-31T09:07:57.418Z,282.43
2019-01-31T09:10:29.259Z,257.07
2019-01-31T09:12:58.882Z,269.10
2019-01-31T09:15:27.558Z,282.73
2019-01-31T09:17:56.165Z,269.90
2019-01-31T09:20:37.021Z,266.83
2019-01-31T09:23:11.853Z,268.17
2019-01-31T09:25:43.612Z,273.27
2019-01-31T09:28:20.759Z,281.77
2019-01-31T09:31:15.035Z,289.80
2019-01-31T09:33:55.765Z,265.87
2019-01-31T09:36:30.472Z,273.37
2019-01-31T09:39:20.476Z,277.90
2019-01-31T09:41:57.891Z,162.03
2019-01-31T09:44:35.105Z,139.53
2019-01-31T09:47:21.706Z,150.67
2019-01-31T09:50:17.667Z,161.87
2019-01-31T09:52:55.010Z,171.87
2019-01-31T09:55:43.407Z,159.57
2019-01-31T09:58:34.846Z,156.53
2019-01-31T10:01:40.282Z,143.60
2019-01-31T10:04:15.127Z,141.73
2019-01-31T10:06:55.915Z,149.87
2019-01-31T10:09:30.890Z,141.23
2019-01-31T10:12:18.093Z,143.20
2019-01-31T10:15:06.259Z,148.63
2019-01-31T10:17:54.519Z,146.50
2019-01-31T10:20:41.667Z,146.47
2019-01-31T10:23:28.496Z,139.77
2019-01-31T10:26:06.455Z,141.23
2019-01-31T10:28:56.386Z,135.17
2019-01-31T10:31:36.959Z,144.93
2019-01-31T10:34:11.556Z,150.97
2019-01-31T10:36:49.137Z,155.53
2019-01-31T10:39:49.532Z,154.83
2019-01-31T10:42:33.389Z,140.47
2019-01-31T10:45:22.797Z,119.77
2019-01-31T10:47:55.964Z,145.63
2019-01-31T10:50:27.777Z,142.57
2019-01-31T10:53:02.504Z,151.10
2019-01-31T10:55:58.411Z,136.60
2019-01-31T10:58:48.057Z,153.03
2019-01-31T11:01:31.873Z,141.03
2019-01-31T11:04:27.709Z,152.67
2019-01-31T11:07:11.521Z,132.27
2019-01-31T11:10:15.051Z,137.30
2019-01-31T11:13:10.913Z,143.40
2019-01-31T11:15:54.036Z,144.30
2019-01-31T11:19:05.341Z,135.20
2019-01-31T11:21:31.142Z,140.47
2019-01-31T11:24:17.648Z,127.37
2019-01-31T11:26:49.339Z,125.53
2019-01-31T11:29:50.862Z,132.37
2019-01-31T11:32:49.621Z,139.00
2019-01-31T11:35:50.563Z,125.13
2019-01-31T11:38:37.549Z,118.90
2019-01-31T11:41:24.226Z,120.53
2019-01-31T11:44:13.235Z,106.40
2019-01-31T11:46:44.981Z,105.60
2019-01-31T11:49:19.254Z,110.20
2019-01-31T11:52:08.932Z,125.40
2019-01-31T11:54:46.711Z,110.10
2019-01-31T11:57:21.493Z,113.90
2019-01-31T11:59:50.142Z,118.03
2019-01-31T12:02:18.712Z,117.37
2019-01-31T12:04:47.331Z,105.37
2019-01-31T12:07:15.982Z,110.93
2019-01-31T12:09:44.951Z,97.20
2019-01-31T12:12:13.849Z,87.27
2019-01-31T12:14:42.421Z,78.23
2019-01-31T12:17:10.917Z,72.73
2019-01-31T12:19:39.584Z,83.27
2019-01-31T12:22:08.326Z,85.73
2019-01-31T12:24:36.895Z,70.80
2019-01-31T12:27:05.441Z,80.57
2019-01-31T12:29:33.937Z,73.93
2019-01-31T12:32:02.444Z,73.20
2019-01-31T12:34:31.061Z,76.57
2019-01-31T12:36:59.568Z,68.20
2019-01-31T12:39:28.147Z,75.57
2019-01-31T12:41:56.757Z,77.57
2019-01-31T12:44:25.405Z,70.40
2019-01-31T12:46:53.998Z,62.23
2019-01-31T12:49:22.571Z,81.83
2019-01-31T12:51:51.209Z,78.33
2019-01-31T12:54:19.770Z,73.07
2019-01-31T12:56:48.383Z,78.47
2019-01-31T12:59:16.944Z,68.83
2019-01-31T13:01:45.507Z,77.33
2019-01-31T13:04:14.196Z,109.30
2019-01-31T13:06:42.768Z,112.83
2019-01-31T13:09:11.403Z,115.70
2019-01-31T13:11:40.024Z,113.10
2019-01-31T13:14:08.657Z,126.57
2019-01-31T13:16:37.234Z,125.83
2019-01-31T13:19:05.917Z,123.27
2019-01-31T13:21:34.419Z,120.63
2019-01-31T13:24:03.057Z,117.30
2019-01-31T13:26:31.807Z,119.87
2019-01-31T13:29:00.477Z,112.97
2019-01-31T13:31:29.041Z,118.90
2019-01-31T13:33:57.782Z,118.23
2019-01-31T13:36:26.349Z,121.43
2019-01-31T13:38:54.987Z,115.93
2019-01-31T13:41:23.532Z,131.63
2019-01-31T13:43:57.751Z,120.27
2019-01-31T13:46:22.690Z,122.97
2019-01-31T13:48:51.313Z,117.40
2019-01-31T13:51:19.948Z,123.90
2019-01-31T13:53:48.517Z,130.50
2019-01-31T13:56:17.135Z,136.70
2019-01-31T13:58:45.774Z,128.33
2019-01-31T14:01:14.346Z,127.30
2019-01-31T14:03:43.098Z,131.23
2019-01-31T14:06:11.649Z,134.00
2019-01-31T14:08:40.155Z,124.07
2019-01-31T14:11:08.702Z,132.30
2019-01-31T14:13:37.291Z,131.90
2019-01-31T14:16:05.862Z,136.67
2019-01-31T14:18:34.482Z,122.90
2019-01-31T14:21:03.043Z,137.80
2019-01-31T14:23:31.693Z,141.30
2019-01-31T14:26:00.358Z,145.87
2019-01-31T14:28:29.363Z,139.83
2019-01-31T14:30:57.849Z,140.97
2019-01-31T14:33:26.639Z,151.00
2019-01-31T14:35:57.916Z,141.73
2019-01-31T14:38:26.721Z,137.37
2019-01-31T14:40:55.804Z,148.67
2019-01-31T14:43:24.421Z,148.63
2019-01-31T14:45:52.986Z,150.80
2019-01-31T14:48:21.595Z,147.80
2019-01-31T14:50:50.171Z,141.57
2019-01-31T14:53:18.836Z,146.70
2019-01-31T14:55:47.525Z,139.60
2019-01-31T14:58:16.087Z,149.60
2019-01-31T15:00:45.311Z,140.33
2019-01-31T15:03:14.351Z,156.03
2019-01-31T15:05:42.982Z,149.63
2019-01-31T15:08:11.556Z,150.20
2019-01-31T15:10:40.227Z,151.10
2019-01-31T15:13:08.877Z,138.70
2019-01-31T15:15:37.520Z,142.67
2019-01-31T15:18:06.908Z,138.13
2019-01-31T15:20:40.824Z,143.97
2019-01-31T15:23:09.498Z,140.83
2019-01-31T15:25:38.136Z,140.57
2019-01-31T15:28:06.783Z,151.33
2019-01-31T15:30:36.456Z,143.33
2019-01-31T15:33:09.802Z,140.67
2019-01-31T15:35:38.446Z,140.27
2019-01-31T15:38:07.158Z,133.93
2019-01-31T15:40:41.451Z,143.33
2019-01-31T15:43:10.111Z,139.33
2019-01-31T15:45:38.792Z,137.20
2019-01-31T15:48:10.539Z,145.93
2019-01-31T15:50:38.336Z,142.13
2019-01-31T15:53:07.910Z,124.03
2019-01-31T15:55:36.626Z,132.77
2019-01-31T15:58:05.963Z,135.17
2019-01-31T16:00:41.731Z,134.30
2019-01-31T16:03:12.185Z,155.37
2019-01-31T16:05:40.760Z,132.43
2019-01-31T16:08:10.056Z,141.23
2019-01-31T16:10:38.733Z,137.97
2019-01-31T16:13:07.334Z,143.13
2019-01-31T16:15:36.008Z,147.47
2019-01-31T16:18:05.034Z,142.20
2019-01-31T16:20:33.606Z,144.77
2019-01-31T16:23:02.212Z,161.03
2019-01-31T16:25:30.787Z,157.23
2019-01-31T16:27:59.422Z,146.57
2019-01-31T16:30:28.108Z,150.80
2019-01-31T16:32:56.739Z,153.67
2019-01-31T16:35:25.386Z,159.03
2019-01-31T16:37:54.076Z,146.77
2019-01-31T16:40:22.638Z,154.10
2019-01-31T16:42:51.277Z,142.47
2019-01-31T16:45:19.961Z,152.17
2019-01-31T16:47:48.592Z,141.53
2019-01-31T16:50:19.701Z,150.90
2019-01-31T16:52:48.394Z,153.93
2019-01-31T16:55:22.670Z,151.80
2019-01-31T16:57:51.302Z,145.67
2019-01-31T17:00:40.887Z,151.87
2019-01-31T17:03:09.534Z,156.40
2019-01-31T17:05:38.184Z,164.47
2019-01-31T17:08:06.872Z,163.17
2019-01-31T17:10:35.513Z,184.47
2019-01-31T17:13:05.186Z,178.23
2019-01-31T17:15:33.887Z,161.10
2019-01-31T17:18:02.523Z,160.67
2019-01-31T17:20:33.927Z,166.73
2019-01-31T17:23:02.627Z,171.33
2019-01-31T17:25:31.196Z,177.17
2019-01-31T17:27:59.701Z,164.10
2019-01-31T17:30:29.209Z,153.93
2019-01-31T17:33:00.247Z,144.97
2019-01-31T17:35:28.074Z,163.73
2019-01-31T17:37:56.754Z,169.23
2019-01-31T17:40:33.733Z,157.40
2019-01-31T17:43:02.357Z,146.63
2019-01-31T17:45:31.135Z,154.33
2019-01-31T17:47:59.818Z,169.17
2019-01-31T17:50:28.492Z,154.77
2019-01-31T17:52:57.124Z,157.27
2019-01-31T17:55:27.196Z,162.23
2019-01-31T17:57:55.830Z,155.73
2019-01-31T18:00:34.205Z,171.83
2019-01-31T18:03:02.897Z,179.47
2019-01-31T18:05:31.474Z,194.23
2019-01-31T18:08:00.114Z,184.93
2019-01-31T18:10:28.731Z,170.37
2019-01-31T18:12:57.709Z,185.97
2019-01-31T18:15:26.344Z,173.47
2019-01-31T18:17:55.335Z,168.17
2019-01-31T18:20:24.426Z,194.60
2019-01-31T18:22:52.998Z,178.93
2019-01-31T18:25:21.998Z,151.53
2019-01-31T18:27:53.141Z,166.13
2019-01-31T18:30:26.093Z,174.90
2019-01-31T18:32:54.682Z,158.10
2019-01-31T18:35:23.244Z,167.50
2019-01-31T18:37:51.852Z,155.57
2019-01-31T18:40:26.261Z,158.43
2019-01-31T18:42:55.242Z,151.03
2019-01-31T18:45:26.931Z,152.90
2019-01-31T18:47:55.560Z,163.10
2019-01-31T18:50:26.037Z,160.50
2019-01-31T18:52:54.663Z,170.43
2019-01-31T18:55:23.239Z,162.43
2019-01-31T18:57:51.816Z,146.83
2019-01-31T19:00:31.902Z,174.07
2019-01-31T19:03:00.487Z,167.10
2019-01-31T19:05:29.162Z,161.43
2019-01-31T19:07:57.787Z,173.17
2019-01-31T19:10:26.281Z,163.37
2019-01-31T19:12:54.854Z,167.80
2019-01-31T19:15:24.973Z,164.93
2019-01-31T19:18:04.951Z,163.87
2019-01-31T19:20:26.706Z,175.57
2019-01-31T19:22:55.803Z,163.30
2019-01-31T19:25:24.383Z,167.33
2019-01-31T19:27:53.025Z,153.63
2019-01-31T19:30:38.586Z,155.37
2019-01-31T19:33:07.764Z,174.80
2019-01-31T19:35:36.633Z,177.87
2019-01-31T19:38:06.169Z,172.73
2019-01-31T19:40:36.851Z,164.50
2019-01-31T19:43:05.598Z,166.17
2019-01-31T19:45:36.807Z,171.77
2019-01-31T19:48:05.597Z,165.13
2019-01-31T19:50:34.149Z,176.63
2019-01-31T19:53:03.311Z,167.40
2019-01-31T19:55:32.321Z,177.63
2019-01-31T19:58:00.892Z,177.80
2019-01-31T20:00:29.573Z,172.37
2019-01-31T20:02:58.593Z,179.40
2019-01-31T20:05:28.376Z,184.00
2019-01-31T20:07:56.989Z,192.77
2019-01-31T20:10:27.644Z,181.87
2019-01-31T20:12:56.487Z,193.50
2019-01-31T20:15:25.179Z,179.20
2019-01-31T20:17:53.828Z,166.40
2019-01-31T20:20:24.950Z,171.37
2019-01-31T20:22:54.148Z,173.43
2019-01-31T20:25:22.787Z,182.93
2019-01-31T20:27:51.424Z,172.70
2019-01-31T20:30:24.915Z,186.80
2019-01-31T20:32:53.556Z,169.57
2019-01-31T20:35:23.236Z,186.60
2019-01-31T20:37:51.868Z,192.23
2019-01-31T20:40:32.090Z,177.63
2019-01-31T20:43:00.772Z,171.90
2019-01-31T20:45:29.282Z,182.63
2019-01-31T20:47:58.088Z,191.47
2019-01-31T20:50:28.674Z,171.90
2019-01-31T20:52:57.407Z,169.30
2019-01-31T20:55:26.087Z,165.67
2019-01-31T20:57:54.766Z,182.63
2019-01-31T21:00:33.906Z,169.83
2019-01-31T21:03:02.935Z,170.70
2019-01-31T21:05:31.532Z,179.63
2019-01-31T21:08:00.193Z,185.20
2019-01-31T21:10:28.815Z,179.27
2019-01-31T21:12:57.384Z,174.67
2019-01-31T21:15:26.347Z,172.77
2019-01-31T21:17:55.066Z,166.90
2019-01-31T21:20:26.510Z,192.43
2019-01-31T21:22:55.458Z,171.47
2019-01-31T21:25:24.167Z,183.10
2019-01-31T21:27:53.151Z,182.73
2019-01-31T21:30:36.077Z,192.07
2019-01-31T21:33:06.273Z,185.03
2019-01-31T21:35:34.851Z,180.67
2019-01-31T21:38:03.555Z,171.87
2019-01-31T21:40:34.018Z,167.07
2019-01-31T21:43:02.688Z,165.03
2019-01-31T21:45:31.386Z,211.03
2019-01-31T21:48:00.034Z,198.13
2019-01-31T21:50:31.391Z,187.40
2019-01-31T21:53:00.103Z,173.63
2019-01-31T21:55:28.724Z,191.43
2019-01-31T21:57:57.377Z,182.17
2019-01-31T22:00:28.736Z,181.37
2019-01-31T22:02:57.382Z,188.40
2019-01-31T22:05:25.967Z,189.10
2019-01-31T22:07:54.573Z,188.17
2019-01-31T22:10:23.212Z,198.13
2019-01-31T22:12:51.854Z,186.27
2019-01-31T22:15:25.491Z,193.87
2019-01-31T22:17:57.145Z,204.07
2019-01-31T22:20:24.491Z,204.27
2019-01-31T22:22:53.127Z,196.27
2019-01-31T22:25:22.580Z,196.47
2019-01-31T22:27:51.218Z,198.37
2019-01-31T22:30:22.105Z,211.50
2019-01-31T22:32:50.751Z,204.63
2019-01-31T22:35:19.322Z,225.30
2019-01-31T22:37:47.934Z,325.83
2019-01-31T22:40:17.370Z,357.97
2019-01-31T22:42:45.960Z,358.73
2019-01-31T22:45:16.571Z,345.97
2019-01-31T22:47:45.219Z,312.00
2019-01-31T22:50:16.321Z,262.23
2019-01-31T22:52:44.927Z,234.73
2019-01-31T22:55:15.700Z,218.10
2019-01-31T22:57:44.683Z,195.40
2019-01-31T23:00:25.103Z,197.57
2019-01-31T23:02:53.608Z,189.60
2019-01-31T23:05:22.258Z,192.97
2019-01-31T23:07:51.709Z,194.27
2019-01-31T23:10:20.422Z,196.10
2019-01-31T23:12:48.984Z,187.77
2019-01-31T23:15:17.667Z,203.13
2019-01-31T23:17:46.724Z,210.37
2019-01-31T23:20:15.364Z,202.57
2019-01-31T23:22:44.038Z,196.57
2019-01-31T23:25:15.505Z,191.27
2019-01-31T23:27:44.061Z,197.37
2019-01-31T23:30:16.158Z,181.13
2019-01-31T23:32:44.737Z,193.97
2019-01-31T23:35:13.230Z,195.60
2019-01-31T23:37:41.913Z,197.70
2019-01-31T23:40:11.694Z,200.33
2019-01-31T23:42:40.325Z,171.87
2019-01-31T23:45:14.389Z,187.33
2019-01-31T23:47:49.019Z,183.17
2019-01-31T23:50:15.065Z,181.43
2019-01-31T23:52:43.356Z,199.27
2019-01-31T23:55:14.293Z,187.80
2019-01-31T23:57:42.845Z,183.20
